Time;durP1;ratioP1;P1;durP2;ratioP2;P2;SDS_P1;SDS_P2;PMS_P1;PMS_P2;Temp;Humidity;BMP_temperature;BMP_pressure;BME280_temperature;BME280_humidity;BME280_pressure;Samples;Min_cycle;Max_cycle;Signal;HPM_P1;HPM_P2
2022/01/17 00:00:16;;;;;;;135.32;43.42;;;;;;;4.97;100.00;103114.34;5085835;28;20034;-73
2022/01/17 00:02:43;;;;;;;149.68;44.67;;;;;;;4.97;100.00;103107.47;5076862;28;21090;-73
2022/01/17 00:05:09;;;;;;;135.57;43.50;;;;;;;4.98;100.00;103114.47;5084833;28;20016;-73
2022/01/17 00:07:36;;;;;;;137.07;45.08;;;;;;;5.00;100.00;103123.25;5085404;28;20025;-73
2022/01/17 00:10:03;;;;;;;132.88;42.95;;;;;;;5.00;100.00;103130.97;5085339;28;20023;-74
2022/01/17 00:12:31;;;;;;;122.80;42.15;;;;;;;5.01;100.00;103129.28;5084151;28;20048;-73
2022/01/17 00:14:57;;;;;;;137.60;42.85;;;;;;;5.02;100.00;103132.00;5085732;28;20044;-74
2022/01/17 00:17:36;;;;;;;126.22;41.05;;;;;;;5.01;100.00;103135.38;5085180;28;20035;-74
2022/01/17 00:20:10;;;;;;;125.88;40.42;;;;;;;5.02;100.00;103134.59;5085399;28;20083;-74
2022/01/17 00:22:36;;;;;;;132.70;40.33;;;;;;;5.03;100.00;103133.81;5084689;28;20087;-73
2022/01/17 00:25:03;;;;;;;127.63;41.17;;;;;;;5.05;100.00;103136.53;5082743;28;20032;-73
2022/01/17 00:27:28;;;;;;;123.47;38.97;;;;;;;5.04;100.00;103138.22;5084063;28;20341;-73
2022/01/17 00:29:53;;;;;;;123.70;40.78;;;;;;;5.05;100.00;103146.88;5083812;28;20027;-73
2022/01/17 00:32:18;;;;;;;117.38;40.25;;;;;;;5.04;100.00;103135.63;5078446;28;20052;-73
2022/01/17 00:34:44;;;;;;;121.90;40.13;;;;;;;5.05;100.00;103131.34;5085024;28;20084;-73
2022/01/17 00:37:09;;;;;;;111.82;38.78;;;;;;;5.04;100.00;103125.31;5084940;28;20262;-73
2022/01/17 00:39:34;;;;;;;114.70;38.30;;;;;;;5.05;100.00;103121.03;5085273;28;20020;-73
2022/01/17 00:42:00;;;;;;;113.80;37.75;;;;;;;5.05;100.00;103126.19;5083465;28;20024;-73
2022/01/17 00:44:25;;;;;;;111.50;39.25;;;;;;;5.04;100.00;103125.31;5084685;28;20230;-73
2022/01/17 00:46:51;;;;;;;122.05;40.05;;;;;;;5.04;100.00;103129.56;5084823;28;20035;-74
2022/01/17 00:49:19;;;;;;;115.32;39.42;;;;;;;5.04;100.00;103139.91;5084428;28;20078;-73
2022/01/17 00:51:44;;;;;;;111.35;37.28;;;;;;;5.02;100.00;103139.75;5083941;28;20020;-73
2022/01/17 00:54:10;;;;;;;113.60;37.88;;;;;;;5.04;100.00;103132.16;5084369;28;20069;-73
2022/01/17 00:56:35;;;;;;;103.70;37.20;;;;;;;5.05;100.00;103141.69;5084714;28;20023;-73
2022/01/17 00:59:00;;;;;;;105.00;36.63;;;;;;;5.05;100.00;103139.13;5084462;28;20098;-73
2022/01/17 01:01:26;;;;;;;100.97;36.03;;;;;;;5.07;100.00;103145.34;5083821;28;20213;-73
2022/01/17 01:03:51;;;;;;;103.38;36.13;;;;;;;5.08;100.00;103146.22;5084580;28;20035;-73
2022/01/17 01:06:17;;;;;;;110.03;35.25;;;;;;;5.08;100.00;103146.22;5084161;28;20206;-73
2022/01/17 01:08:42;;;;;;;105.47;35.88;;;;;;;5.07;100.00;103139.25;5087316;28;20166;-73
2022/01/17 01:11:08;;;;;;;101.80;34.20;;;;;;;5.07;100.00;103149.56;5084995;28;20035;-73
2022/01/17 01:13:34;;;;;;;100.88;33.95;;;;;;;5.08;100.00;103154.88;5084213;28;20016;-73
2022/01/17 01:18:38;;;;;;;94.70;32.40;;;;;;;5.08;100.00;103156.56;5084240;28;20020;-74
2022/01/17 01:29:23;;;;;;;86.63;32.58;;;;;;;5.08;100.00;103143.63;5082604;28;20094;-73
2022/01/17 01:31:59;;;;;;;92.43;33.47;;;;;;;5.07;100.00;103134.06;5082952;28;20110;-73
2022/01/17 01:34:39;;;;;;;93.50;32.83;;;;;;;5.09;100.00;103138.59;5083512;28;20024;-73
2022/01/17 01:37:04;;;;;;;;;;;;;;;5.12;100.00;103137.97;5080049;28;20016;-73
2022/01/17 01:39:30;;;;;;;85.68;29.80;;;;;;;5.09;100.00;103143.75;5083211;28;19901;-73
2022/01/17 01:41:57;;;;;;;89.22;29.40;;;;;;;5.07;100.00;103137.59;5083983;28;20028;-74
2022/01/17 01:44:24;;;;;;;90.47;32.00;;;;;;;5.05;100.00;103145.22;5083928;28;20008;-73
2022/01/17 01:46:52;;;;;;;82.35;29.35;;;;;;;5.04;100.00;103150.25;5080176;28;20012;-73
2022/01/17 01:49:18;;;;;;;80.80;30.13;;;;;;;5.01;100.00;103161.22;5082979;28;20256;-73
2022/01/17 01:51:45;;;;;;;81.63;30.40;;;;;;;5.00;100.00;103171.44;5083378;28;20020;-73
2022/01/17 01:54:11;;;;;;;82.10;28.83;;;;;;;4.96;100.00;103171.94;5082789;28;20339;-73
2022/01/17 01:56:38;;;;;;;77.88;29.25;;;;;;;4.91;100.00;103171.56;5082111;28;20024;-73
2022/01/17 01:59:04;;;;;;;76.57;28.35;;;;;;;4.88;100.00;103166.13;5083379;28;20069;-73
2022/01/17 02:01:30;;;;;;;76.25;28.17;;;;;;;4.85;100.00;103150.34;5083422;28;20170;-73
2022/01/17 02:03:55;;;;;;;74.18;27.30;;;;;;;4.83;100.00;103149.34;5083321;28;20259;-73
2022/01/17 02:06:20;;;;;;;75.82;26.80;;;;;;;4.82;100.00;103165.59;5082305;28;20020;-73
2022/01/17 02:08:46;;;;;;;68.47;24.70;;;;;;;4.80;100.00;103159.41;5083580;28;20036;-73
2022/01/17 02:11:11;;;;;;;64.35;25.25;;;;;;;4.77;100.00;103169.50;5082476;28;20179;-73
2022/01/17 02:13:39;;;;;;;66.63;24.65;;;;;;;4.75;99.90;103166.78;5083373;28;20027;-73
2022/01/17 02:16:13;;;;;;;59.22;24.38;;;;;;;4.74;99.81;103164.06;5077058;28;20021;-73
2022/01/17 02:18:40;;;;;;;65.45;23.15;;;;;;;4.70;99.51;103156.03;5079309;28;20202;-73
2022/01/17 02:21:19;;;;;;;69.22;24.70;;;;;;;4.69;99.43;103161.06;5082327;28;20263;-73
2022/01/17 02:23:47;;;;;;;67.38;24.48;;;;;;;4.65;99.50;103174.50;5079356;28;20063;-73
2022/01/17 02:26:14;;;;;;;65.43;23.92;;;;;;;4.61;99.57;103157.84;5082216;28;20256;-73
2022/01/17 02:28:48;;;;;;;60.20;22.90;;;;;;;4.60;99.50;103161.19;5084116;28;20021;-73
2022/01/17 02:31:14;;;;;;;62.10;24.58;;;;;;;4.56;99.09;103159.13;5083229;28;20024;-73
2022/01/17 02:33:39;;;;;;;54.67;22.13;;;;;;;4.54;98.96;103158.09;5082150;28;20282;-73
2022/01/17 02:36:05;;;;;;;55.22;21.35;;;;;;;4.50;99.30;103148.28;5081279;28;20087;-74
2022/01/17 02:38:30;;;;;;;68.57;22.85;;;;;;;4.48;98.81;103165.31;5082998;28;20875;-74
2022/01/17 02:40:56;;;;;;;59.72;21.80;;;;;;;4.45;99.08;103167.66;5081773;28;20086;-73
2022/01/17 02:43:24;;;;;;;59.35;22.40;;;;;;;4.43;99.35;103167.53;5082581;28;20025;-73
2022/01/17 02:48:20;;;;;;;53.88;21.52;;;;;;;4.39;98.90;103154.19;5083223;28;20099;-73
2022/01/17 02:50:46;;;;;;;57.28;22.45;;;;;;;4.37;98.97;103160.91;5082997;28;20270;-74
2022/01/17 02:53:12;;;;;;;53.03;21.58;;;;;;;4.35;99.01;103164.25;5080113;28;20039;-74
2022/01/17 02:55:42;;;;;;;56.42;21.60;;;;;;;4.33;99.34;103176.13;5080653;28;20088;-74
2022/01/17 02:58:07;;;;;;;56.35;21.38;;;;;;;4.32;99.30;103173.44;5081825;28;20255;-74
2022/01/17 03:00:33;;;;;;;62.95;21.98;;;;;;;4.28;99.63;103167.06;5083362;28;20020;-74
2022/01/17 03:02:58;;;;;;;61.70;21.90;;;;;;;4.24;98.97;103167.56;5082141;28;20029;-74
2022/01/17 03:05:23;;;;;;;56.75;20.85;;;;;;;4.20;98.80;103168.13;5082441;28;20017;-74
2022/01/17 03:07:50;;;;;;;56.83;21.63;;;;;;;4.16;98.46;103166.91;5084488;28;20274;-74
2022/01/17 03:12:47;;;;;;;56.33;21.48;;;;;;;4.10;98.77;103155.16;5086543;28;20104;-74
2022/01/17 03:15:13;;;;;;;60.78;22.23;;;;;;;4.08;98.69;103161.88;5086225;28;20278;-74
2022/01/17 03:17:39;;;;;;;57.03;21.08;;;;;;;4.06;98.99;103155.69;5081618;28;20047;-74
2022/01/17 03:20:05;;;;;;;54.42;20.92;;;;;;;4.05;98.85;103167.66;5086384;28;20047;-73
2022/01/17 03:22:31;;;;;;;63.38;21.90;;;;;;;4.04;99.37;103162.34;5086388;28;20043;-74
2022/01/17 03:24:57;;;;;;;57.25;22.38;;;;;;;4.01;99.62;103144.94;5079286;28;20016;-74
2022/01/17 03:27:22;;;;;;;58.83;23.13;;;;;;;4.00;99.16;103150.88;5084120;28;20020;-74
2022/01/17 03:29:47;;;;;;;64.40;22.27;;;;;;;3.98;99.50;103153.34;5086037;28;20043;-74
2022/01/17 03:32:12;;;;;;;64.13;23.15;;;;;;;3.95;99.37;103149.56;5085034;28;20029;-74
2022/01/17 03:34:39;;;;;;;73.15;23.65;;;;;;;3.95;99.37;103155.66;5085444;28;20020;-74
2022/01/17 03:37:05;;;;;;;64.97;22.75;;;;;;;3.94;99.55;103159.00;5082774;28;20028;-73
2022/01/17 03:39:30;;;;;;;58.95;22.45;;;;;;;3.93;99.35;103164.91;5086242;28;20269;-73
2022/01/17 03:41:55;;;;;;;67.65;23.77;;;;;;;3.93;99.25;103166.59;5085014;28;20023;-74
2022/01/17 03:44:21;;;;;;;66.05;23.50;;;;;;;3.91;99.33;103173.28;5084278;28;20024;-74
2022/01/17 03:46:46;;;;;;;65.15;22.45;;;;;;;3.90;99.37;103176.63;5085236;28;20032;-73
2022/01/17 03:49:11;;;;;;;60.47;22.17;;;;;;;3.88;99.61;103167.84;5082493;28;20044;-73
2022/01/17 03:51:36;;;;;;;62.47;22.30;;;;;;;3.87;99.67;103164.38;5084933;28;20077;-74
2022/01/17 03:54:02;;;;;;;68.88;22.48;;;;;;;3.87;99.48;103169.53;5078911;28;20024;-73
2022/01/17 03:56:27;;;;;;;67.40;23.55;;;;;;;3.86;99.74;103166.81;5083326;28;20279;-74
2022/01/17 03:58:52;;;;;;;63.05;22.77;;;;;;;3.84;99.59;103156.38;5084281;28;20243;-74
2022/01/17 04:01:19;;;;;;;68.13;23.05;;;;;;;3.85;99.72;103165.00;5085399;28;20255;-73
2022/01/17 04:03:46;;;;;;;60.88;21.67;;;;;;;3.83;99.75;103160.59;5080693;28;20021;-73
2022/01/17 04:06:14;;;;;;;60.83;21.08;;;;;;;3.85;99.70;103165.88;5085582;28;20263;-73
2022/01/17 04:08:39;;;;;;;57.53;21.58;;;;;;;3.85;99.79;103165.88;5085415;28;20047;-73
2022/01/17 04:11:05;;;;;;;52.17;20.05;;;;;;;3.87;99.62;103171.19;5085445;28;20160;-73
2022/01/17 04:13:32;;;;;;;59.33;21.13;;;;;;;3.84;99.52;103169.25;5083552;28;20074;-74
2022/01/17 04:15:58;;;;;;;59.45;19.65;;;;;;;3.84;99.42;103174.41;5084560;28;20028;-73
2022/01/17 04:18:24;;;;;;;51.92;18.98;;;;;;;3.82;99.28;103170.78;5083379;28;20081;-73
2022/01/17 04:20:50;;;;;;;51.15;18.52;;;;;;;3.80;99.37;103169.75;5085949;28;20290;-73
2022/01/17 04:23:15;;;;;;;48.55;18.10;;;;;;;3.79;99.02;103173.09;5083996;28;20088;-73
2022/01/17 04:25:42;;;;;;;45.97;17.38;;;;;;;3.78;98.66;103171.28;5080253;28;20032;-74
2022/01/17 04:28:09;;;;;;;52.55;17.73;;;;;;;3.78;98.70;103181.59;5085077;28;20032;-73
2022/01/17 04:30:36;;;;;;;51.25;17.42;;;;;;;3.77;98.71;103179.81;5077285;28;20166;-74
2022/01/17 04:33:01;;;;;;;40.47;16.25;;;;;;;3.77;98.53;103187.53;5085018;28;20051;-74
2022/01/17 04:35:28;;;;;;;43.53;15.38;;;;;;;3.74;98.62;103193.31;5082902;28;20032;-74
2022/01/17 04:37:57;;;;;;;38.45;14.63;;;;;;;3.72;98.36;103189.72;5084937;28;20027;-73
2022/01/17 04:40:23;;;;;;;44.40;16.27;;;;;;;3.69;98.38;103186.84;5083806;28;20027;-74
2022/01/17 04:42:53;;;;;;;46.03;15.00;;;;;;;3.66;98.23;103181.41;5084876;28;20174;-73
2022/01/17 04:45:20;;;;;;;37.90;13.63;;;;;;;3.60;97.97;103186.91;5082480;28;20034;-73
2022/01/17 04:47:48;;;;;;;38.80;13.98;;;;;;;3.58;97.96;103183.31;5084966;28;20289;-74
2022/01/17 04:50:17;;;;;;;40.22;14.80;;;;;;;3.56;97.89;103178.78;5082697;28;20058;-74
2022/01/17 04:52:42;;;;;;;40.88;13.32;;;;;;;3.54;97.94;103180.31;5083533;28;20044;-73
2022/01/17 04:55:10;;;;;;;36.00;13.73;;;;;;;3.52;98.17;103169.88;5083710;28;20021;-73
2022/01/17 04:57:37;;;;;;;40.33;13.65;;;;;;;3.51;98.03;103174.91;5079513;28;20062;-74
2022/01/17 05:00:05;;;;;;;41.58;14.43;;;;;;;3.51;97.98;103180.94;5084246;28;20035;-74
2022/01/17 05:02:30;;;;;;;38.47;13.02;;;;;;;3.51;98.55;103188.69;5084196;28;20024;-74
2022/01/17 05:04:55;;;;;;;39.45;14.40;;;;;;;3.53;98.14;103193.97;5083606;28;20013;-74
2022/01/17 05:07:21;;;;;;;34.90;12.82;;;;;;;3.51;98.20;103191.25;5076404;28;20047;-74
2022/01/17 05:09:46;;;;;;;33.15;12.80;;;;;;;3.50;98.07;103194.59;5084242;28;20054;-74
2022/01/17 05:12:13;;;;;;;36.30;13.40;;;;;;;3.50;98.19;103196.28;5084211;28;20060;-74
2022/01/17 05:14:48;;;;;;;36.67;13.55;;;;;;;3.50;98.27;103209.16;5082040;28;20042;-74
2022/01/17 05:17:37;;;;;;;40.88;13.82;;;;;;;3.49;98.57;103216.00;5083883;28;20285;-74
2022/01/17 05:20:03;;;;;;;;;;;;;;;3.54;98.50;103219.88;5082727;28;20263;-74
2022/01/17 05:22:32;;;;;;;33.45;11.45;;;;;;;3.50;98.31;103212.63;5083999;28;19900;-74
2022/01/17 05:24:58;;;;;;;35.63;12.18;;;;;;;3.49;98.15;103216.00;5076065;28;20358;-74
2022/01/17 05:27:24;;;;;;;30.45;12.68;;;;;;;3.48;98.10;103214.19;5077957;28;20017;-74
2022/01/17 05:29:49;;;;;;;32.70;12.45;;;;;;;3.46;98.04;103207.97;5083874;28;20020;-74
2022/01/17 05:32:15;;;;;;;35.50;12.88;;;;;;;3.43;98.37;103213.78;5079130;28;20155;-74
2022/01/17 05:34:41;;;;;;;35.17;13.13;;;;;;;3.43;98.08;103218.91;5083003;28;20044;-74
2022/01/17 05:37:13;;;;;;;38.72;14.55;;;;;;;3.42;97.97;103216.22;5083577;28;20020;-74
2022/01/17 05:39:39;;;;;;;35.25;13.50;;;;;;;3.40;97.91;103218.63;5083792;28;20024;-74
2022/01/17 05:42:05;;;;;;;39.15;14.00;;;;;;;3.39;98.17;103221.97;5083846;28;20048;-74
2022/01/17 05:44:31;;;;;;;40.50;14.35;;;;;;;3.37;98.05;103238.06;5082793;28;20013;-74
2022/01/17 05:46:57;;;;;;;43.95;15.30;;;;;;;3.33;98.03;103228.22;5083681;28;20020;-74
2022/01/17 05:49:22;;;;;;;42.03;15.10;;;;;;;3.30;98.40;103224.63;5083508;28;20021;-74
2022/01/17 05:51:51;;;;;;;44.72;16.33;;;;;;;3.30;98.62;103221.13;5083444;28;20024;-74
2022/01/17 05:54:16;;;;;;;40.22;15.13;;;;;;;3.28;98.64;103223.56;5082749;28;20030;-74
2022/01/17 05:56:43;;;;;;;42.95;15.75;;;;;;;3.28;98.56;103220.97;5083458;28;20047;-74
2022/01/17 05:59:08;;;;;;;45.70;15.93;;;;;;;3.28;98.38;103217.50;5077055;28;20024;-74
2022/01/17 06:01:33;;;;;;;44.22;17.48;;;;;;;3.27;98.34;103226.00;5079683;28;20218;-74
2022/01/17 06:03:58;;;;;;;45.47;16.77;;;;;;;3.23;98.22;103232.56;5081280;28;20167;-73
2022/01/17 06:06:24;;;;;;;43.40;16.77;;;;;;;3.21;98.11;103235.75;5082291;28;20016;-74
2022/01/17 06:08:49;;;;;;;46.13;17.35;;;;;;;3.20;98.52;103229.69;5083294;28;20087;-74
2022/01/17 06:11:14;;;;;;;47.13;17.33;;;;;;;3.20;98.55;103228.78;5080750;28;20168;-74
2022/01/17 06:13:40;;;;;;;47.88;17.52;;;;;;;3.16;98.20;103227.59;5080673;28;20008;-73
2022/01/17 06:16:08;;;;;;;43.83;18.48;;;;;;;3.14;98.34;103244.56;5082727;28;20061;-73
2022/01/17 06:18:33;;;;;;;54.05;19.90;;;;;;;3.12;98.41;103246.09;5083663;28;20019;-74
2022/01/17 06:20:58;;;;;;;50.33;19.67;;;;;;;3.09;98.27;103232.94;5082942;28;20189;-73
2022/01/17 06:23:25;;;;;;;51.67;19.08;;;;;;;3.07;98.19;103232.81;5079860;28;20016;-73
2022/01/17 06:25:50;;;;;;;67.05;22.55;;;;;;;3.05;98.46;103243.72;5082545;28;20017;-73
2022/01/17 06:28:16;;;;;;;61.80;21.98;;;;;;;3.03;98.52;103235.84;5082207;28;20048;-74
2022/01/17 06:30:41;;;;;;;62.38;22.27;;;;;;;3.02;98.50;103239.19;5082338;28;20040;-73
2022/01/17 06:33:06;;;;;;;64.63;22.23;;;;;;;3.02;98.36;103244.34;5079640;28;20032;-74
2022/01/17 06:35:32;;;;;;;61.97;22.63;;;;;;;2.99;98.67;103233.75;5073948;28;20044;-73
2022/01/17 06:37:57;;;;;;;63.08;23.00;;;;;;;3.00;99.18;103247.53;5072677;28;20263;-73
2022/01/17 06:40:22;;;;;;;65.93;24.27;;;;;;;3.01;99.46;103255.41;5073859;28;20083;-74
2022/01/17 06:42:50;;;;;;;68.88;25.27;;;;;;;3.06;99.74;103253.28;5084653;28;20222;-74
2022/01/17 06:45:15;;;;;;;67.05;25.25;;;;;;;3.08;99.65;103264.63;5086971;28;20066;-73
2022/01/17 06:47:41;;;;;;;68.75;25.38;;;;;;;3.09;100.00;103253.56;5087512;28;20012;-74
2022/01/17 06:50:08;;;;;;;68.07;23.63;;;;;;;3.12;100.00;103248.69;5083724;28;20275;-74
2022/01/17 06:52:34;;;;;;;62.70;24.95;;;;;;;3.15;100.00;103253.22;5080398;28;20039;-74
2022/01/17 06:55:00;;;;;;;64.43;24.88;;;;;;;3.15;100.00;103255.81;5087250;28;20024;-74
2022/01/17 06:57:25;;;;;;;63.30;23.98;;;;;;;3.16;100.00;103278.19;5086072;28;20039;-74
2022/01/17 06:59:52;;;;;;;66.78;25.20;;;;;;;3.17;99.77;103295.47;5074048;28;20095;-74
2022/01/17 07:02:18;;;;;;;64.38;25.33;;;;;;;3.17;99.80;103291.22;5081888;28;20020;-74
2022/01/17 07:04:43;;;;;;;63.65;24.55;;;;;;;3.16;99.53;103297.16;5080630;28;20073;-74
2022/01/17 07:07:08;;;;;;;60.42;24.00;;;;;;;3.15;99.25;103292.75;5087861;28;20195;-74
2022/01/17 07:09:36;;;;;;;67.55;25.48;;;;;;;3.16;99.14;103314.25;5087192;28;20083;-73
2022/01/17 07:12:02;;;;;;;61.92;26.00;;;;;;;3.15;99.28;103312.47;5086430;28;20099;-74
2022/01/17 07:14:28;;;;;;;65.25;25.45;;;;;;;3.11;99.41;103285.50;5069990;28;20017;-74
2022/01/17 07:16:53;;;;;;;61.13;25.08;;;;;;;3.10;99.36;103283.69;5085237;28;20123;-74
2022/01/17 07:19:19;;;;;;;69.22;25.02;;;;;;;3.08;99.29;103275.81;5086968;28;20033;-74
2022/01/17 07:21:44;;;;;;;68.47;25.92;;;;;;;3.07;99.50;103270.53;5086924;28;20020;-74
2022/01/17 07:24:10;;;;;;;71.50;26.20;;;;;;;3.07;99.59;103248.25;5086223;28;20039;-73
2022/01/17 07:26:35;;;;;;;68.88;25.75;;;;;;;3.06;99.52;103254.16;5086101;28;20017;-74
2022/01/17 07:29:00;;;;;;;66.45;26.13;;;;;;;3.04;99.56;103242.84;5086815;28;20023;-74
2022/01/17 07:31:26;;;;;;;71.20;25.98;;;;;;;3.04;99.74;103250.56;5086550;28;20019;-74
2022/01/17 07:33:52;;;;;;;66.18;24.83;;;;;;;3.07;99.59;103270.53;5086736;28;20062;-73
2022/01/17 07:36:19;;;;;;;71.03;25.77;;;;;;;3.06;99.75;103273.88;5085624;28;20028;-74
2022/01/17 07:38:46;;;;;;;71.00;25.77;;;;;;;3.06;99.92;103277.34;5080097;28;20097;-74
2022/01/17 07:41:11;;;;;;;67.22;26.40;;;;;;;3.09;100.00;103279.31;5086400;28;20020;-74
2022/01/17 07:43:37;;;;;;;76.28;27.05;;;;;;;3.12;100.00;103282.16;5086573;28;20027;-74
2022/01/17 07:46:06;;;;;;;67.25;26.00;;;;;;;3.12;99.91;103277.91;5086120;28;20175;-74
2022/01/17 07:50:59;;;;;;;71.75;25.80;;;;;;;3.17;99.90;103292.91;5085582;28;20152;-74
2022/01/17 07:53:24;;;;;;;66.32;24.42;;;;;;;3.19;100.00;103289.72;5084639;28;20266;-74
2022/01/17 07:55:49;;;;;;;70.30;24.90;;;;;;;3.20;100.00;103298.34;5086183;28;20020;-74
2022/01/17 07:58:15;;;;;;;73.45;24.40;;;;;;;3.22;100.00;103305.44;5085536;28;20020;-74
2022/01/17 08:00:40;;;;;;;64.97;23.95;;;;;;;3.24;100.00;103314.22;5085639;28;20037;-74
2022/01/17 08:03:06;;;;;;;68.35;24.75;;;;;;;3.27;100.00;103313.59;5085973;28;20027;-74
2022/01/17 08:05:32;;;;;;;68.57;25.90;;;;;;;3.28;100.00;103324.03;5085988;28;20084;-74
2022/01/17 08:07:58;;;;;;;68.30;24.80;;;;;;;3.30;100.00;103330.28;5086040;28;20040;-74
2022/01/17 08:10:23;;;;;;;67.93;24.27;;;;;;;3.34;100.00;103335.72;5085939;28;20024;-74
2022/01/17 08:12:48;;;;;;;64.57;24.50;;;;;;;3.34;100.00;103338.28;5085113;28;20063;-74
2022/01/17 08:15:16;;;;;;;61.83;23.88;;;;;;;3.34;100.00;103327.97;5080580;28;20028;-73
2022/01/17 08:17:43;;;;;;;72.93;24.27;;;;;;;3.37;100.00;103320.53;5085785;28;20023;-74
2022/01/17 08:20:09;;;;;;;70.13;24.90;;;;;;;3.39;100.00;103322.50;5082306;28;20021;-74
2022/01/17 08:22:35;;;;;;;76.15;25.58;;;;;;;3.42;100.00;103335.66;5080146;28;20023;-74
2022/01/17 08:25:00;;;;;;;77.05;26.08;;;;;;;3.47;100.00;103329.25;5085861;28;20232;-74
2022/01/17 08:27:27;;;;;;;73.00;26.02;;;;;;;3.56;100.00;103328.28;5084285;28;20020;-74
2022/01/17 08:29:53;;;;;;;75.13;25.55;;;;;;;3.62;100.00;103327.19;5084973;28;20024;-74
2022/01/17 08:32:18;;;;;;;79.72;26.08;;;;;;;3.67;100.00;103339.59;5085483;28;20029;-73
2022/01/17 08:34:43;;;;;;;75.78;25.63;;;;;;;3.69;100.00;103338.06;5085458;28;20100;-74
2022/01/17 08:37:09;;;;;;;75.00;26.13;;;;;;;3.71;100.00;103341.66;5085485;28;20026;-74
2022/01/17 08:39:34;;;;;;;68.13;25.00;;;;;;;3.72;100.00;103336.69;5085484;28;20093;-73
2022/01/17 08:41:59;;;;;;;80.68;25.27;;;;;;;3.74;100.00;103329.09;5085233;28;20040;-74
2022/01/17 08:44:25;;;;;;;70.40;24.67;;;;;;;3.75;100.00;103326.66;5075063;28;20012;-74
2022/01/17 08:46:51;;;;;;;80.93;25.27;;;;;;;3.78;100.00;103308.88;5079451;28;20017;-73
2022/01/17 08:49:16;;;;;;;74.10;25.60;;;;;;;3.80;100.00;103311.59;5080974;28;20020;-74
2022/01/17 08:51:42;;;;;;;73.80;25.27;;;;;;;3.83;100.00;103317.91;5085176;28;20028;-73
2022/01/17 08:54:08;;;;;;;75.90;25.33;;;;;;;3.85;100.00;103314.56;5074307;28;20048;-74
2022/01/17 08:56:33;;;;;;;75.13;24.63;;;;;;;3.88;100.00;103326.09;5084385;28;20028;-74
2022/01/17 08:58:59;;;;;;;79.20;24.75;;;;;;;3.89;100.00;103320.16;5084431;28;20030;-74
2022/01/17 09:01:25;;;;;;;71.43;25.10;;;;;;;3.92;100.00;103333.31;5075357;28;20079;-73
2022/01/17 09:03:51;;;;;;;74.65;24.63;;;;;;;3.94;100.00;103326.66;5085101;28;20043;-74
2022/01/17 09:06:16;;;;;;;77.35;25.40;;;;;;;3.96;100.00;103338.00;5094623;28;20084;-73
2022/01/17 09:08:42;;;;;;;68.47;23.08;;;;;;;3.98;100.00;103336.47;5096120;28;20008;-74
2022/01/17 09:11:08;;;;;;;75.82;24.10;;;;;;;4.03;100.00;103330.81;5083268;28;20042;-72
2022/01/17 09:13:33;;;;;;;69.20;22.98;;;;;;;4.05;100.00;103335.34;5084092;28;20262;-73
2022/01/17 09:15:59;;;;;;;66.47;22.70;;;;;;;4.07;100.00;103345.78;5084071;28;20255;-73
2022/01/17 09:18:24;;;;;;;64.93;22.80;;;;;;;4.08;100.00;103355.34;5084452;28;20020;-73
2022/01/17 09:20:51;;;;;;;66.00;22.50;;;;;;;4.11;100.00;103363.38;5083824;28;20025;-72
2022/01/17 09:23:16;;;;;;;65.78;22.33;;;;;;;4.16;100.00;103377.59;5083596;28;20025;-72
2022/01/17 09:25:42;;;;;;;69.75;21.98;;;;;;;4.17;100.00;103375.16;5084513;28;20282;-72
2022/01/17 09:28:08;;;;;;;66.57;21.60;;;;;;;4.21;100.00;103381.50;5084884;28;20066;-73
2022/01/17 09:30:33;;;;;;;61.78;20.23;;;;;;;4.25;100.00;103383.59;5084535;28;20298;-73
2022/01/17 09:32:59;;;;;;;72.15;21.92;;;;;;;4.30;100.00;103378.84;5084174;28;20024;-73
2022/01/17 09:35:24;;;;;;;60.60;20.83;;;;;;;4.33;100.00;103382.63;5081560;28;20033;-72
2022/01/17 09:37:50;;;;;;;68.22;21.65;;;;;;;4.39;100.00;103383.91;5083563;28;20036;-73
2022/01/17 09:40:19;;;;;;;59.03;20.13;;;;;;;4.42;100.00;103377.38;5084232;28;20016;-72
2022/01/17 09:42:45;;;;;;;60.33;20.50;;;;;;;4.45;100.00;103371.59;5082483;28;20016;-72
2022/01/17 09:45:13;;;;;;;64.70;19.88;;;;;;;4.47;100.00;103372.63;5083114;28;20187;-73
2022/01/17 09:47:40;;;;;;;58.20;19.50;;;;;;;4.48;100.00;103382.19;5082964;28;20048;-72
2022/01/17 09:50:10;;;;;;;63.00;18.40;;;;;;;4.51;100.00;103393.69;5082657;28;20024;-73
2022/01/17 09:52:44;;;;;;;53.83;18.55;;;;;;;4.55;100.00;103391.34;5079099;28;20044;-72
2022/01/17 09:55:22;;;;;;;54.80;19.35;;;;;;;4.57;100.00;103403.66;5083924;28;20024;-73
2022/01/17 09:57:49;;;;;;;55.63;17.55;;;;;;;4.58;100.00;103400.31;5084473;28;20024;-72
2022/01/17 10:00:16;;;;;;;56.65;17.75;;;;;;;4.61;100.00;103416.06;5083208;28;20043;-74
2022/01/17 10:02:42;;;;;;;49.15;16.42;;;;;;;4.64;100.00;103437.00;5083849;28;20029;-76
2022/01/17 10:05:09;;;;;;;53.05;15.75;;;;;;;4.65;100.00;103412.06;5090999;28;20182;-76
2022/01/17 10:08:08;;;;;;;52.42;16.73;;;;;;;4.69;100.00;103422.84;5083751;28;20024;-76
2022/01/17 10:10:43;;;;;;;43.85;15.80;;;;;;;4.71;100.00;103425.56;5077267;28;20187;-76
2022/01/17 10:13:13;;;;;;;38.40;14.63;;;;;;;4.73;99.90;103417.94;5083606;28;20044;-76
2022/01/17 10:15:54;;;;;;;49.70;15.27;;;;;;;4.73;99.80;103415.34;5076536;28;20056;-76
2022/01/17 10:18:32;;;;;;;54.15;14.82;;;;;;;4.76;99.70;103415.63;5073778;28;20016;-76
2022/01/17 10:21:04;;;;;;;44.63;15.17;;;;;;;4.77;99.60;103412.28;5071601;28;20031;-76
2022/01/17 10:23:47;;;;;;;41.58;14.23;;;;;;;4.78;99.76;103411.47;5081798;28;20053;-76
2022/01/17 10:34:52;;;;;;;49.42;14.00;;;;;;;4.82;99.33;103430.00;5083770;28;20052;-76
2022/01/17 10:36:50;;;;;;;43.67;13.68;;;;;;;4.86;99.74;103433.75;5081011;28;20187;-76
2022/01/17 10:39:16;;;;;;;41.55;13.80;;;;;;;4.87;99.45;103433.88;5074800;28;20017;-76
2022/01/17 10:41:41;;;;;;;44.58;13.45;;;;;;;4.90;99.40;103441.00;5083055;28;20028;-75
2022/01/17 10:44:07;;;;;;;44.13;13.35;;;;;;;4.91;99.08;103442.81;5083739;28;20083;-76
2022/01/17 10:46:32;;;;;;;51.42;13.63;;;;;;;4.93;99.36;103433.53;5080001;28;20255;-75
2022/01/17 10:48:59;;;;;;;42.45;13.00;;;;;;;4.96;99.62;103443.22;5083643;28;20024;-75
2022/01/17 10:51:34;;;;;;;36.38;12.88;;;;;;;4.98;99.60;103445.19;5083523;28;20035;-75
2022/01/17 10:54:13;;;;;;;40.85;12.68;;;;;;;5.00;98.99;103438.47;5082072;28;20259;-75
2022/01/17 10:56:50;;;;;;;43.88;14.07;;;;;;;5.04;98.53;103450.88;5075831;28;20326;-75
2022/01/17 10:59:31;;;;;;;39.92;12.70;;;;;;;5.07;98.93;103444.16;5073886;28;20260;-76
2022/01/17 11:01:58;;;;;;;35.60;11.60;;;;;;;5.08;98.56;103464.97;5074131;28;20377;-75
2022/01/17 11:04:38;;;;;;;41.83;10.73;;;;;;;5.12;98.46;103469.63;5067887;28;20016;-76
2022/01/17 11:07:05;;;;;;;37.40;11.57;;;;;;;5.15;98.46;103467.31;5081836;28;20008;-75
2022/01/17 11:09:39;;;;;;;35.35;11.75;;;;;;;5.20;98.65;103462.59;5081620;28;20095;-75
2022/01/17 11:12:13;;;;;;;39.22;11.52;;;;;;;5.23;98.52;103479.25;5082559;28;20275;-75
2022/01/17 11:14:39;;;;;;;31.33;10.85;;;;;;;5.25;99.03;103470.72;5083281;28;20281;-76
2022/01/17 11:17:32;;;;;;;40.85;11.18;;;;;;;5.30;99.29;103472.03;5077077;28;20217;-75
2022/01/17 11:20:07;;;;;;;34.60;11.88;;;;;;;5.29;98.94;103460.78;5082581;28;20024;-75
2022/01/17 11:22:41;;;;;;;40.20;11.18;;;;;;;5.34;98.38;103462.06;5083181;28;20095;-76
2022/01/17 11:25:10;;;;;;;40.70;11.90;;;;;;;5.36;98.39;103454.50;5082405;28;20032;-76
2022/01/17 11:27:37;;;;;;;32.42;10.65;;;;;;;5.39;97.99;103465.09;5075220;28;20047;-76
2022/01/17 11:30:04;;;;;;;30.02;10.10;;;;;;;5.42;97.92;103446.31;5083727;28;20197;-76
2022/01/17 11:32:29;;;;;;;35.50;10.15;;;;;;;5.45;97.87;103438.88;5086475;28;20048;-76
2022/01/17 11:34:57;;;;;;;34.42;10.95;;;;;;;5.48;97.68;103444.28;5084283;28;20277;-75
2022/01/17 11:37:25;;;;;;;36.53;11.00;;;;;;;5.50;98.17;103438.47;5076050;28;20255;-75
2022/01/17 11:39:56;;;;;;;36.60;10.70;;;;;;;5.51;97.88;103437.69;5085606;28;20187;-76